| time (UTC) | temp C | wind direction | speed KPH | gust KPH | rain 1hr cm | rain 24hr cm | rain mn cm | humidity % | barometer mb |
| 20260507062549 | 12 | 263 | 0.0 | 1.6 | 0.00 | 0.00 | 0.00 | 80 | 1025.2 |
| 20260507061544 | 12 | 268 | 0.0 | 3.2 | 0.00 | 0.00 | 0.00 | 80 | 1025.2 |
| 20260507060540 | 12 | 277 | 1.6 | 4.8 | 0.00 | 0.00 | 0.00 | 81 | 1025.4 |
| 20260507055536 | 13 | 261 | 0.0 | 0.0 | 0.00 | 0.00 | 0.00 | 82 | 1025.2 |
| 20260507054535 | 13 | 283 | 1.6 | 1.6 | 0.00 | 0.00 | 0.00 | 82 | 1025.4 |
| 20260507053530 | 13 | 258 | 0.0 | 0.0 | 0.00 | 0.00 | 0.00 | 82 | 1025.3 |
| 20260507052526 | 13 | 267 | 1.6 | 1.6 | 0.00 | 0.00 | 0.00 | 81 | 1025.2 |
| 20260507051526 | 13 | 261 | 0.0 | 0.0 | 0.00 | 0.00 | 0.00 | 81 | 1025.3 |
| 20260507050524 | 13 | 261 | 0.0 | 3.2 | 0.00 | 0.00 | 0.00 | 80 | 1025.3 |
| 20260507045523 | 13 | 355 | 3.2 | 4.8 | 0.00 | 0.00 | 0.00 | 80 | 1025.3 |
| 20260507044523 | 13 | 278 | 0.0 | 1.6 | 0.00 | 0.00 | 0.00 | 80 | 1025.1 |
| 20260507043522 | 13 | 292 | 1.6 | 3.2 | 0.00 | 0.00 | 0.00 | 80 | 1025.2 |
| 20260507042521 | 13 | 281 | 1.6 | 1.6 | 0.00 | 0.00 | 0.00 | 80 | 1025.1 |
| 20260507041520 | 13 | 259 | 1.6 | 3.2 | 0.00 | 0.00 | 0.00 | 80 | 1025.0 |
| 20260507040519 | 13 | 263 | 0.0 | 3.2 | 0.00 | 0.00 | 0.00 | 79 | 1024.9 |
| 20260507035517 | 13 | 264 | 0.0 | 4.8 | 0.00 | 0.00 | 0.00 | 79 | 1024.8 |
| 20260507034516 | 14 | 269 | 1.6 | 4.8 | 0.00 | 0.00 | 0.00 | 79 | 1024.7 |
| 20260507033512 | 14 | 260 | 0.0 | 1.6 | 0.00 | 0.00 | 0.00 | 79 | 1024.7 |
| 20260507032512 | 15 | 18 | 4.8 | 4.8 | 0.00 | 0.00 | 0.00 | 78 | 1024.3 |
| 20260507031510 | 15 | 259 | 0.0 | 0.0 | 0.00 | 0.00 | 0.00 | 78 | 1024.4 |
| 20260507030510 | 15 | 257 | 0.0 | 1.6 | 0.00 | 0.00 | 0.00 | 78 | 1024.2 |
| 20260507025510 | 15 | 291 | 1.6 | 4.8 | 0.00 | 0.00 | 0.00 | 78 | 1024.2 |
| 20260507024506 | 15 | 279 | 1.6 | 4.8 | 0.00 | 0.00 | 0.00 | 77 | 1024.0 |
| 20260507023504 | 15 | 254 | 1.6 | 3.2 | 0.00 | 0.00 | 0.00 | 77 | 1024.0 |
| 20260507022504 | 15 | 258 | 0.0 | 1.6 | 0.00 | 0.00 | 0.00 | 77 | 1023.8 |
| 20260507021501 | 16 | 260 | 1.6 | 4.8 | 0.00 | 0.00 | 0.00 | 75 | 1023.7 |
| 20260507020501 | 16 | 257 | 0.0 | 1.6 | 0.00 | 0.00 | 0.00 | 76 | 1023.8 |
| 20260507015457 | 16 | 266 | 1.6 | 8.0 | 0.00 | 0.00 | 0.00 | 74 | 1023.9 |
| 20260507014456 | 17 | 320 | 1.6 | 3.2 | 0.00 | 0.00 | 0.00 | 72 | 1023.7 |
| 20260507013454 | 17 | 255 | 0.0 | 1.6 | 0.00 | 0.00 | 0.00 | 72 | 1024.1 |
| 20260507012454 | 17 | 256 | 1.6 | 3.2 | 0.00 | 0.00 | 0.00 | 73 | 1024.0 |
| 20260507011454 | 17 | 251 | 1.6 | 8.0 | 0.00 | 0.00 | 0.00 | 72 | 1023.8 |
| 20260507010450 | 18 | 274 | 0.0 | 1.6 | 0.00 | 0.00 | 0.00 | 70 | 1023.7 |
| 20260507005450 | 18 | 258 | 1.6 | 3.2 | 0.00 | 0.00 | 0.00 | 69 | 1023.7 |
| 20260507004449 | 20 | 320 | 3.2 | 8.0 | 0.00 | 0.00 | 0.00 | 67 | 1023.8 |
| 20260507003448 | 20 | 267 | 0.0 | 1.6 | 0.00 | 0.00 | 0.00 | 67 | 1023.9 |
| 20260507002446 | 20 | 289 | 0.0 | 4.8 | 0.00 | 0.00 | 0.00 | 65 | 1023.6 |
| 20260507001445 | 20 | 261 | 0.0 | 1.6 | 0.00 | 0.00 | 0.00 | 68 | 1023.8 |
| 20260507000444 | 20 | 251 | 1.6 | 3.2 | 0.00 | 0.00 | 0.00 | 68 | 1023.7 |
| 20260506235444 | 19 | 286 | 6.4 | 9.7 | 0.00 | 0.00 | 0.00 | 69 | 1023.8 |
| 20260506234443 | 20 | 249 | 0.0 | 4.8 | 0.00 | 0.00 | 0.00 | 70 | 1023.6 |
| 20260506233442 | 20 | 305 | 1.6 | 3.2 | 0.00 | 0.00 | 0.00 | 68 | 1023.7 |
| 20260506232441 | 20 | 290 | 3.2 | 4.8 | 0.00 | 0.00 | 0.00 | 68 | 1023.5 |
| 20260506231441 | 20 | 261 | 1.6 | 3.2 | 0.00 | 0.00 | 0.00 | 69 | 1023.7 |
| 20260506230440 | 20 | 266 | 1.6 | 3.2 | 0.00 | 0.00 | 0.00 | 67 | 1023.6 |
| 20260506225440 | 22 | 263 | 0.0 | 1.6 | 0.00 | 0.00 | 0.00 | 63 | 1023.6 |
| 20260506224440 | 21 | 253 | 0.0 | 1.6 | 0.00 | 0.00 | 0.00 | 64 | 1023.8 |
| 20260506223437 | 20 | 263 | 0.0 | 1.6 | 0.00 | 0.00 | 0.00 | 67 | 1024.0 |
| 20260506222437 | 20 | 238 | 0.0 | 1.6 | 0.00 | 0.00 | 0.00 | 67 | 1024.1 |
| 20260506221437 | 20 | 258 | 0.0 | 0.0 | 0.00 | 0.00 | 0.00 | 69 | 1024.1 |
| 20260506220436 | 20 | 268 | 0.0 | 1.6 | 0.00 | 0.00 | 0.00 | 66 | 1024.4 |
| 20260506215435 | 21 | 285 | 1.6 | 3.2 | 0.00 | 0.00 | 0.00 | 64 | 1024.1 |
| 20260506214434 | 21 | 260 | 0.0 | 0.0 | 0.00 | 0.00 | 0.00 | 63 | 1024.1 |
| 20260506213429 | 21 | 257 | 0.0 | 4.8 | 0.00 | 0.00 | 0.00 | 64 | 1024.0 |
| 20260506212427 | 21 | 258 | 0.0 | 1.6 | 0.00 | 0.00 | 0.00 | 65 | 1023.9 |
| 20260506211423 | 20 | 257 | 0.0 | 0.0 | 0.00 | 0.00 | 0.00 | 70 | 1024.4 |
| 20260506210422 | 19 | 256 | 0.0 | 1.6 | 0.00 | 0.00 | 0.00 | 70 | 1024.4 |
| 20260506205420 | 19 | 263 | 0.0 | 0.0 | 0.00 | 0.00 | 0.00 | 71 | 1024.5 |
| 20260506204420 | 19 | 261 | 0.0 | 0.0 | 0.00 | 0.00 | 0.00 | 70 | 1024.5 |
| 20260506203420 | 19 | 259 | 0.0 | 1.6 | 0.00 | 0.00 | 0.00 | 70 | 1024.5 |
| 20260506202420 | 18 | 265 | 1.6 | 3.2 | 0.00 | 0.00 | 0.00 | 70 | 1024.6 |
| 20260506201420 | 18 | 263 | 3.2 | 4.8 | 0.00 | 0.00 | 0.00 | 72 | 1024.4 |
| 20260506200418 | 18 | 259 | 0.0 | 1.6 | 0.00 | 0.00 | 0.00 | 75 | 1024.8 |
| 20260506195418 | 18 | 254 | 0.0 | 1.6 | 0.00 | 0.00 | 0.00 | 75 | 1024.5 |
| 20260506194418 | 18 | 260 | 0.0 | 0.0 | 0.00 | 0.00 | 0.00 | 75 | 1024.9 |
| 20260506193417 | 18 | 261 | 0.0 | 0.0 | 0.00 | 0.00 | 0.00 | 76 | 1024.8 |
| 20260506192417 | 18 | 261 | 0.0 | 0.0 | 0.00 | 0.00 | 0.00 | 75 | 1024.8 |
| 20260506191416 | 18 | 261 | 0.0 | 0.0 | 0.00 | 0.00 | 0.00 | 75 | 1024.8 |
| 20260506190415 | 17 | 259 | 0.0 | 0.0 | 0.00 | 0.00 | 0.00 | 76 | 1024.7 |
| 20260506185416 | 17 | 267 | 0.0 | 0.0 | 0.00 | 0.00 | 0.00 | 77 | 1024.8 |
| 20260506184415 | 17 | 239 | 0.0 | 1.6 | 0.00 | 0.00 | 0.00 | 76 | 1024.5 |
| 20260506183414 | 17 | 281 | 0.0 | 1.6 | 0.00 | 0.00 | 0.00 | 78 | 1024.7 |
| 20260506182414 | 17 | 261 | 0.0 | 0.0 | 0.00 | 0.00 | 0.00 | 79 | 1024.5 |
| 20260506181409 | 16 | 259 | 0.0 | 0.0 | 0.00 | 0.00 | 0.00 | 82 | 1024.6 |
| 20260506180408 | 16 | 261 | 0.0 | 0.0 | 0.00 | 0.00 | 0.00 | 84 | 1024.7 |
| 20260506175408 | 16 | 257 | 0.0 | 0.0 | 0.00 | 0.00 | 0.00 | 82 | 1024.8 |
| 20260506174402 | 15 | 261 | 0.0 | 0.0 | 0.00 | 0.00 | 0.00 | 83 | 1024.9 |
| 20260506173401 | 15 | 261 | 0.0 | 0.0 | 0.00 | 0.00 | 0.00 | 84 | 1024.9 |
| 20260506172401 | 15 | 259 | 0.0 | 0.0 | 0.00 | 0.00 | 0.00 | 84 | 1024.8 |
| 20260506171356 | 15 | 261 | 0.0 | 1.6 | 0.00 | 0.00 | 0.00 | 85 | 1024.5 |
| 20260506170355 | 15 | 259 | 0.0 | 1.6 | 0.00 | 0.00 | 0.00 | 85 | 1024.6 |
| 20260506165352 | 15 | 260 | 0.0 | 0.0 | 0.00 | 0.00 | 0.00 | 86 | 1024.7 |
| 20260506164351 | 14 | 261 | 0.0 | 0.0 | 0.00 | 0.00 | 0.00 | 86 | 1024.8 |
| 20260506163349 | 14 | 261 | 0.0 | 1.6 | 0.00 | 0.00 | 0.00 | 85 | 1024.7 |
| 20260506162349 | 14 | 260 | 0.0 | 1.6 | 0.00 | 0.00 | 0.00 | 85 | 1024.4 |
| 20260506161343 | 15 | 264 | 0.0 | 1.6 | 0.00 | 0.00 | 0.00 | 84 | 1024.8 |
| 20260506160343 | 15 | 260 | 0.0 | 0.0 | 0.00 | 0.00 | 0.00 | 85 | 1024.5 |
| 20260506155338 | 15 | 260 | 0.0 | 1.6 | 0.00 | 0.00 | 0.00 | 86 | 1024.3 |
| 20260506153456 | 14 | 261 | 0.0 | 0.0 | 0.00 | 0.00 | 0.00 | 87 | 1023.8 |
| 20260506152455 | 13 | 259 | 0.0 | 0.0 | 0.00 | 0.00 | 0.00 | 88 | 1024.1 |
| 20260506151451 | 13 | 260 | 0.0 | 0.0 | 0.00 | 0.00 | 0.00 | 90 | 1024.5 |
| 20260506150450 | 13 | 259 | 0.0 | 0.0 | 0.00 | 0.00 | 0.00 | 89 | 1024.5 |
| 20260506145449 | 13 | 260 | 0.0 | 0.0 | 0.00 | 0.00 | 0.00 | 89 | 1024.4 |
| 20260506144449 | 13 | 285 | 3.2 | 3.2 | 0.00 | 0.00 | 0.00 | 88 | 1024.5 |
| 20260506143444 | 13 | 260 | 0.0 | 0.0 | 0.00 | 0.00 | 0.00 | 90 | 1024.2 |
| 20260506142440 | 13 | 258 | 1.6 | 3.2 | 0.00 | 0.00 | 0.00 | 88 | 1024.0 |
| 20260506141436 | 13 | 260 | 0.0 | 0.0 | 0.00 | 0.00 | 0.00 | 90 | 1023.9 |
| 20260506140431 | 13 | 267 | 0.0 | 0.0 | 0.00 | 0.00 | 0.00 | 91 | 1023.3 |
| 20260506135431 | 13 | 260 | 0.0 | 0.0 | 0.00 | 0.00 | 0.00 | 91 | 1023.7 |
| 20260506134428 | 13 | 262 | 0.0 | 0.0 | 0.00 | 0.00 | 0.00 | 91 | 1023.5 |
| 20260506133428 | 13 | 262 | 0.0 | 0.0 | 0.00 | 0.00 | 0.00 | 92 | 1023.6 |
| 20260506132428 | 13 | 260 | 0.0 | 0.0 | 0.00 | 0.00 | 0.00 | 92 | 1023.6 |
| 20260506131428 | 13 | 260 | 0.0 | 0.0 | 0.00 | 0.00 | 0.00 | 92 | 1023.4 |
| 20260506130427 | 13 | 260 | 0.0 | 0.0 | 0.00 | 0.00 | 0.00 | 91 | 1023.1 |
| 20260506125423 | 13 | 260 | 0.0 | 0.0 | 0.00 | 0.00 | 0.00 | 91 | 1023.0 |
| 20260506124418 | 13 | 260 | 0.0 | 0.0 | 0.00 | 0.00 | 0.00 | 91 | 1023.0 |
| 20260506123414 | 13 | 260 | 0.0 | 0.0 | 0.00 | 0.00 | 0.00 | 90 | 1022.9 |
| 20260506122413 | 13 | 259 | 0.0 | 0.0 | 0.00 | 0.00 | 0.00 | 89 | 1022.9 |
| 20260506121408 | 13 | 259 | 0.0 | 0.0 | 0.00 | 0.00 | 0.00 | 88 | 1023.2 |
| 20260506120403 | 13 | 258 | 0.0 | 0.0 | 0.00 | 0.00 | 0.00 | 88 | 1023.0 |
| 20260506115358 | 13 | 259 | 0.0 | 0.0 | 0.00 | 0.00 | 0.00 | 87 | 1023.1 |
| 20260506114358 | 13 | 262 | 0.0 | 0.0 | 0.00 | 0.00 | 0.00 | 87 | 1022.8 |
| 20260506113354 | 13 | 262 | 0.0 | 0.0 | 0.00 | 0.00 | 0.00 | 87 | 1022.6 |
| 20260506112354 | 13 | 262 | 0.0 | 0.0 | 0.00 | 0.00 | 0.00 | 87 | 1022.6 |
| 20260506111350 | 13 | 261 | 0.0 | 0.0 | 0.00 | 0.00 | 0.00 | 86 | 1022.7 |
| 20260506110349 | 13 | 264 | 0.0 | 0.0 | 0.00 | 0.00 | 0.00 | 86 | 1022.4 |
| 20260506105348 | 13 | 263 | 0.0 | 0.0 | 0.00 | 0.00 | 0.00 | 87 | 1022.2 |
| 20260506104344 | 13 | 263 | 0.0 | 0.0 | 0.00 | 0.00 | 0.00 | 87 | 1022.1 |
| 20260506103339 | 13 | 264 | 0.0 | 0.0 | 0.00 | 0.00 | 0.00 | 87 | 1022.0 |
| 20260506102334 | 13 | 263 | 0.0 | 0.0 | 0.00 | 0.00 | 0.00 | 86 | 1022.1 |
| 20260506101332 | 13 | 259 | 0.0 | 0.0 | 0.00 | 0.00 | 0.00 | 87 | 1021.8 |
| 20260506100329 | 13 | 261 | 0.0 | 0.0 | 0.00 | 0.00 | 0.00 | 87 | 1021.6 |
| 20260506095329 | 13 | 261 | 0.0 | 0.0 | 0.00 | 0.00 | 0.00 | 87 | 1021.6 |
| 20260506094325 | 14 | 263 | 0.0 | 0.0 | 0.00 | 0.00 | 0.00 | 86 | 1021.7 |
| 20260506093325 | 14 | 263 | 0.0 | 0.0 | 0.00 | 0.00 | 0.00 | 87 | 1021.5 |
| 20260506092321 | 14 | 258 | 0.0 | 0.0 | 0.00 | 0.00 | 0.00 | 86 | 1021.5 |
| 20260506091321 | 14 | 258 | 0.0 | 0.0 | 0.00 | 0.00 | 0.00 | 86 | 1021.4 |
| 20260506090316 | 14 | 258 | 0.0 | 0.0 | 0.00 | 0.00 | 0.00 | 87 | 1021.4 |
| 20260506085314 | 14 | 261 | 0.0 | 0.0 | 0.00 | 0.00 | 0.00 | 88 | 1021.5 |
| 20260506084314 | 15 | 264 | 0.0 | 0.0 | 0.00 | 0.00 | 0.00 | 88 | 1021.4 |
| 20260506083308 | 15 | 260 | 0.0 | 0.0 | 0.00 | 0.00 | 0.00 | 88 | 1021.3 |
| 20260506082307 | 15 | 262 | 0.0 | 0.0 | 0.00 | 0.00 | 0.00 | 88 | 1021.4 |
| 20260506081302 | 15 | 261 | 0.0 | 0.0 | 0.00 | 0.00 | 0.00 | 88 | 1021.4 |
| 20260506080301 | 15 | 261 | 0.0 | 0.0 | 0.00 | 0.00 | 0.00 | 87 | 1021.3 |
| 20260506073251 | 15 | 261 | 0.0 | 0.0 | 0.00 | 0.00 | 0.00 | 86 | 1021.1 |
| 20260506072252 | 15 | 265 | 0.0 | 0.0 | 0.00 | 0.00 | 0.00 | 85 | 1021.0 |
| 20260506071247 | 15 | 258 | 0.0 | 0.0 | 0.00 | 0.00 | 0.00 | 83 | 1021.1 |
| 20260506070247 | 15 | 271 | 0.0 | 0.0 | 0.00 | 0.00 | 0.00 | 82 | 1021.1 |